Time;durP1;ratioP1;P1;durP2;ratioP2;P2;SDS_P1;SDS_P2;PMS_P1;PMS_P2;Temp;Humidity;BMP_temperature;BMP_pressure;BME280_temperature;BME280_humidity;BME280_pressure;Samples;Min_cycle;Max_cycle;Signal;HPM_P1;HPM_P2
2022/12/14 00:00:56;;;;;;;0.82;0.82;;;-4.80;99.90;;;;;;4398060;32;20089;-66
2022/12/14 00:03:22;;;;;;;0.50;0.50;;;-4.90;99.90;;;;;;4393570;32;20147;-66
2022/12/14 00:05:47;;;;;;;0.50;0.50;;;-4.90;99.90;;;;;;4379174;32;20095;-66
2022/12/14 00:08:14;;;;;;;0.70;0.70;;;-4.90;99.90;;;;;;4387409;32;20176;-66
2022/12/14 00:10:40;;;;;;;0.82;0.82;;;-4.90;99.90;;;;;;4397490;32;20556;-66
2022/12/14 00:13:08;;;;;;;0.50;0.50;;;-4.90;99.90;;;;;;4397133;32;20362;-66
2022/12/14 00:15:36;;;;;;;1.15;1.15;;;-4.90;99.90;;;;;;4407764;32;20138;-67
2022/12/14 00:18:02;;;;;;;1.00;1.00;;;-4.80;99.90;;;;;;4418649;32;20069;-66
2022/12/14 00:20:28;;;;;;;0.50;0.50;;;-4.80;99.90;;;;;;4418378;32;20097;-66
2022/12/14 00:22:54;;;;;;;0.68;0.68;;;-4.80;99.90;;;;;;4421390;32;20321;-66
2022/12/14 00:25:21;;;;;;;0.60;0.60;;;-4.80;99.90;;;;;;4423804;32;20114;-66
2022/12/14 00:27:46;;;;;;;0.68;0.68;;;-4.90;99.90;;;;;;4412740;32;20120;-66
2022/12/14 00:30:13;;;;;;;0.62;0.62;;;-4.90;99.90;;;;;;4400645;32;20092;-66
2022/12/14 00:32:39;;;;;;;7.20;1.83;;;-4.90;99.90;;;;;;4391210;32;20636;-66
2022/12/14 00:35:07;;;;;;;0.50;0.50;;;-4.90;99.90;;;;;;4378233;32;20597;-66
2022/12/14 00:37:33;;;;;;;0.70;0.70;;;-4.80;99.90;;;;;;4385053;32;20061;-66
2022/12/14 00:39:58;;;;;;;0.60;0.60;;;-4.70;99.90;;;;;;4420263;32;20524;-65
2022/12/14 00:42:23;;;;;;;3.75;2.50;;;-4.70;99.90;;;;;;4421921;32;20093;-65
2022/12/14 00:44:49;;;;;;;1.90;1.58;;;-4.80;99.90;;;;;;4421322;32;20585;-66
2022/12/14 00:47:14;;;;;;;0.55;0.55;;;-4.80;99.90;;;;;;4420557;32;21249;-65
2022/12/14 00:49:40;;;;;;;0.40;0.40;;;-4.80;99.90;;;;;;4421908;32;20126;-65
2022/12/14 00:52:05;;;;;;;0.60;0.60;;;-4.70;99.90;;;;;;4422837;32;20355;-66
2022/12/14 00:54:31;;;;;;;0.60;0.60;;;-4.60;99.90;;;;;;4419098;32;20532;-66
2022/12/14 00:56:56;;;;;;;1.23;0.75;;;-4.70;99.90;;;;;;4419423;32;20505;-66
2022/12/14 00:59:22;;;;;;;11.43;3.50;;;-4.70;99.90;;;;;;4421804;32;20598;-66
2022/12/14 01:01:47;;;;;;;9.07;1.85;;;-4.60;99.90;;;;;;4399219;32;20092;-66
2022/12/14 01:04:16;;;;;;;1.55;0.95;;;-4.60;99.90;;;;;;4382454;32;20116;-66
2022/12/14 01:06:43;;;;;;;0.90;0.90;;;-4.60;99.90;;;;;;4397272;32;20073;-66
2022/12/14 01:09:09;;;;;;;0.50;0.50;;;-4.70;99.90;;;;;;4421753;32;20406;-66
2022/12/14 01:11:35;;;;;;;0.80;0.80;;;-4.70;99.90;;;;;;4422893;32;20069;-66
2022/12/14 01:14:01;;;;;;;1.23;1.20;;;-4.60;99.90;;;;;;4421941;32;20109;-65
2022/12/14 01:16:26;;;;;;;1.50;1.40;;;-4.50;99.90;;;;;;4420642;32;20112;-66
2022/12/14 01:18:51;;;;;;;0.50;0.50;;;-4.40;99.90;;;;;;4405572;32;20490;-66
2022/12/14 01:21:20;;;;;;;0.40;0.40;;;-4.50;99.90;;;;;;4421444;32;20597;-66
2022/12/14 01:23:47;;;;;;;1.10;1.08;;;-4.50;99.90;;;;;;4421091;32;20102;-66
2022/12/14 01:26:15;;;;;;;1.25;1.15;;;-4.50;99.90;;;;;;4420834;32;20065;-66
2022/12/14 01:28:40;;;;;;;0.70;0.70;;;-4.50;99.90;;;;;;4420360;32;20163;-66
2022/12/14 01:31:08;;;;;;;0.50;0.50;;;-4.50;99.90;;;;;;4411008;32;20121;-66
2022/12/14 01:33:33;;;;;;;1.73;1.62;;;-4.60;99.90;;;;;;4390935;32;20085;-66
2022/12/14 01:36:08;;;;;;;0.52;0.52;;;-4.60;99.90;;;;;;4389976;32;20109;-66
2022/12/14 01:38:34;;;;;;;0.70;0.70;;;-4.70;99.90;;;;;;4421600;32;20519;-66
2022/12/14 01:41:00;;;;;;;0.68;0.68;;;-4.60;99.90;;;;;;4424595;32;20155;-65
2022/12/14 01:43:46;;;;;;;0.50;0.50;;;-4.60;99.90;;;;;;4423116;32;20236;-65
2022/12/14 01:46:14;;;;;;;0.68;0.68;;;-4.70;99.90;;;;;;4422463;32;20093;-64
2022/12/14 01:48:39;;;;;;;0.50;0.50;;;-4.80;99.90;;;;;;4422543;32;20120;-66
2022/12/14 01:51:05;;;;;;;0.77;0.77;;;-4.80;99.90;;;;;;4423103;32;20559;-66
2022/12/14 01:53:31;;;;;;;0.60;0.60;;;-4.70;99.90;;;;;;4423016;32;20093;-65
2022/12/14 01:55:57;;;;;;;0.45;0.45;;;-4.70;99.90;;;;;;4421726;32;20517;-65
2022/12/14 01:58:24;;;;;;;0.40;0.40;;;-4.70;99.90;;;;;;4422735;32;20159;-67
2022/12/14 02:00:55;;;;;;;0.77;0.77;;;-4.70;99.90;;;;;;4414724;32;20469;-66
2022/12/14 02:03:30;;;;;;;0.60;0.60;;;-4.80;99.90;;;;;;4393956;32;20529;-66
2022/12/14 02:06:02;;;;;;;0.40;0.40;;;-4.90;99.90;;;;;;4391131;32;20127;-66
2022/12/14 02:08:28;;;;;;;1.42;1.35;;;-5.00;99.90;;;;;;4417667;32;20105;-65
2022/12/14 02:10:54;;;;;;;0.70;0.70;;;-5.10;99.90;;;;;;4424086;32;20097;-65
2022/12/14 02:13:25;;;;;;;0.50;0.50;;;-5.10;99.90;;;;;;4424575;32;20073;-65
2022/12/14 02:15:51;;;;;;;0.60;0.60;;;-5.20;99.90;;;;;;4423461;32;20450;-66
2022/12/14 02:18:21;;;;;;;1.77;1.27;;;-5.20;99.90;;;;;;4422449;32;20073;-67
2022/12/14 02:21:05;;;;;;;0.77;0.77;;;-5.20;99.90;;;;;;4424827;32;20837;-70
2022/12/14 02:23:32;;;;;;;0.50;0.50;;;-5.20;99.90;;;;;;4416247;32;20101;-65
2022/12/14 02:26:21;;;;;;;0.40;0.40;;;-5.20;99.90;;;;;;4421436;32;20486;-71
2022/12/14 02:29:17;;;;;;;1.75;1.60;;;-5.10;99.90;;;;;;4409769;32;20117;-65
2022/12/14 02:32:17;;;;;;;0.50;0.50;;;-5.20;99.90;;;;;;4391978;32;20458;-65
2022/12/14 02:35:12;;;;;;;0.50;0.50;;;-5.30;99.90;;;;;;4370031;32;21180;-65
2022/12/14 02:37:52;;;;;;;0.50;0.50;;;-5.30;99.90;;;;;;4399936;32;20429;-65
2022/12/14 02:40:29;;;;;;;0.60;0.60;;;-5.30;99.90;;;;;;4423845;32;20065;-66
2022/12/14 02:43:08;;;;;;;0.60;0.60;;;-5.30;99.90;;;;;;4421879;32;20561;-65
2022/12/14 02:45:41;;;;;;;0.50;0.50;;;-5.30;99.90;;;;;;4422269;32;20152;-65
2022/12/14 02:48:17;;;;;;;3.00;1.77;;;-5.30;99.90;;;;;;4423246;32;20077;-66
2022/12/14 02:50:54;;;;;;;1.02;1.02;;;-5.40;99.90;;;;;;4423331;32;20140;-66
2022/12/14 02:53:25;;;;;;;1.27;1.25;;;-5.40;99.90;;;;;;4421594;32;20078;-66
2022/12/14 02:55:52;;;;;;;0.55;0.55;;;-5.40;99.90;;;;;;4419385;32;20207;-66
2022/12/14 02:58:40;;;;;;;0.60;0.60;;;-5.40;99.90;;;;;;4422431;32;20611;-65
2022/12/14 03:01:11;;;;;;;0.55;0.55;;;-5.40;99.90;;;;;;4409485;32;20287;-66
2022/12/14 03:03:37;;;;;;;1.05;1.02;;;-5.40;99.90;;;;;;4390324;32;20085;-65
2022/12/14 03:06:13;;;;;;;0.70;0.70;;;-5.40;99.90;;;;;;4386678;32;20372;-65
2022/12/14 03:08:40;;;;;;;1.25;1.17;;;-5.50;99.90;;;;;;4398001;32;20085;-66
2022/12/14 03:11:18;;;;;;;2.65;1.95;;;-5.40;99.90;;;;;;4400756;32;20949;-65
2022/12/14 03:13:52;;;;;;;0.60;0.60;;;-5.40;99.90;;;;;;4424828;32;20089;-66
2022/12/14 03:16:22;;;;;;;0.57;0.57;;;-5.40;99.90;;;;;;4422255;32;20081;-66
2022/12/14 03:18:56;;;;;;;0.65;0.65;;;-5.40;99.90;;;;;;4421241;32;20093;-66
2022/12/14 03:21:30;;;;;;;0.50;0.50;;;-5.40;99.90;;;;;;4422575;32;20073;-66
2022/12/14 03:23:56;;;;;;;0.45;0.45;;;-5.40;99.90;;;;;;4421708;32;20089;-65
2022/12/14 03:26:29;;;;;;;0.57;0.57;;;-5.50;99.90;;;;;;4422578;32;20105;-67
2022/12/14 03:29:03;;;;;;;0.50;0.50;;;-5.50;99.90;;;;;;4421900;32;20101;-67
2022/12/14 03:32:07;;;;;;;2.08;1.95;;;-5.50;99.90;;;;;;4421468;32;20133;-67
2022/12/14 03:34:39;;;;;;;0.75;0.75;;;-5.60;99.90;;;;;;4396784;32;20500;-66
2022/12/14 03:37:13;;;;;;;0.40;0.40;;;-5.60;99.90;;;;;;4397389;32;20061;-66
2022/12/14 03:39:41;;;;;;;1.12;1.12;;;-5.60;99.90;;;;;;4401372;32;20081;-66
2022/12/14 03:42:19;;;;;;;0.88;0.88;;;-5.60;99.90;;;;;;4410815;32;20533;-67
2022/12/14 03:44:48;;;;;;;1.62;1.30;;;-5.60;99.90;;;;;;4403216;32;20069;-66
2022/12/14 03:47:38;;;;;;;0.85;0.85;;;-5.60;99.90;;;;;;4400818;32;20101;-65
2022/12/14 03:50:13;;;;;;;0.40;0.40;;;-5.60;99.90;;;;;;4392840;32;20081;-67
2022/12/14 03:52:47;;;;;;;0.73;0.73;;;-5.60;99.90;;;;;;4397347;32;20062;-66
2022/12/14 03:55:45;;;;;;;1.05;1.05;;;-5.60;99.90;;;;;;4405082;32;20081;-67
2022/12/14 03:58:16;;;;;;;0.55;0.55;;;-5.60;99.90;;;;;;4422121;32;20086;-66
2022/12/14 04:00:51;;;;;;;0.70;0.70;;;-5.60;99.90;;;;;;4421817;32;20078;-65
2022/12/14 04:03:44;;;;;;;0.50;0.50;;;-5.50;99.90;;;;;;4416521;32;20097;-66
2022/12/14 04:06:39;;;;;;;4.60;2.83;;;-5.50;99.90;;;;;;4393029;32;20138;-66
2022/12/14 04:09:45;;;;;;;4.50;2.62;;;-5.60;99.90;;;;;;4411873;32;20152;-67
2022/12/14 04:19:09;;;;;;;0.85;0.85;;;-5.50;99.90;;;;;;4386397;32;20437;-64
2022/12/14 04:20:59;;;;;;;0.57;0.57;;;-5.50;99.90;;;;;;4387174;32;20216;-67
2022/12/14 04:26:22;;;;;;;4.12;1.80;;;-5.50;99.90;;;;;;4408410;32;20077;-66
2022/12/14 04:29:56;;;;;;;1.55;1.48;;;-5.50;99.90;;;;;;4404227;32;20065;-66
2022/12/14 04:31:47;;;;;;;0.60;0.60;;;-5.50;99.90;;;;;;4378833;32;20225;-65
2022/12/14 04:34:16;;;;;;;1.75;1.55;;;-5.50;99.90;;;;;;4403760;32;20069;-64
2022/12/14 04:36:50;;;;;;;0.57;0.57;;;-5.50;99.90;;;;;;4401676;32;20093;-66
2022/12/14 04:39:25;;;;;;;1.33;1.25;;;-5.60;99.90;;;;;;4400848;32;20101;-66
2022/12/14 04:41:54;;;;;;;1.70;1.50;;;-5.60;99.90;;;;;;4399684;32;20111;-66
2022/12/14 04:44:28;;;;;;;0.50;0.50;;;-5.60;99.90;;;;;;4396421;32;20112;-67
2022/12/14 04:46:55;;;;;;;1.08;1.08;;;-5.60;99.90;;;;;;4398488;32;20101;-65
2022/12/14 04:49:29;;;;;;;0.50;0.50;;;-5.70;99.90;;;;;;4422279;32;20124;-65
2022/12/14 04:52:17;;;;;;;0.82;0.82;;;-5.70;99.90;;;;;;4421721;32;20069;-65
2022/12/14 04:54:58;;;;;;;3.25;1.50;;;-5.80;99.90;;;;;;4421640;32;20100;-65
2022/12/14 04:57:33;;;;;;;0.43;0.43;;;-5.70;99.90;;;;;;4407670;32;20559;-66
2022/12/14 05:00:00;;;;;;;0.60;0.60;;;-5.80;99.90;;;;;;4399921;32;20854;-68
2022/12/14 05:02:54;;;;;;;0.80;0.80;;;-5.80;99.90;;;;;;4396783;32;20078;-66
2022/12/14 05:05:25;;;;;;;1.75;1.60;;;-5.90;99.90;;;;;;4368615;32;20081;-66
2022/12/14 05:08:05;;;;;;;0.60;0.60;;;-5.90;99.90;;;;;;4408518;32;20089;-68
2022/12/14 05:10:40;;;;;;;0.50;0.50;;;-5.90;99.90;;;;;;4421939;32;20101;-67
2022/12/14 05:13:16;;;;;;;0.90;0.90;;;-5.90;99.90;;;;;;4412586;32;20081;-66
2022/12/14 05:15:47;;;;;;;0.50;0.50;;;-5.90;99.90;;;;;;4399716;32;20649;-66
2022/12/14 05:18:12;;;;;;;;;;;-5.90;99.90;;;;;;4399643;32;20109;-66
2022/12/14 05:20:38;;;;;;;0.50;0.50;;;-5.90;99.90;;;;;;4395795;32;20318;-66
2022/12/14 05:23:03;;;;;;;0.77;0.77;;;-6.00;99.90;;;;;;4372317;32;20156;-66
2022/12/14 05:25:29;;;;;;;1.35;1.25;;;-6.00;99.90;;;;;;4372749;32;20514;-66
2022/12/14 05:27:54;;;;;;;0.50;0.50;;;-6.00;99.90;;;;;;4368745;32;20319;-66
2022/12/14 05:30:21;;;;;;;1.40;1.30;;;-6.00;99.90;;;;;;4369193;32;20102;-66
2022/12/14 05:32:46;;;;;;;0.40;0.40;;;-5.90;99.90;;;;;;4362619;32;20682;-65
2022/12/14 05:35:13;;;;;;;0.60;0.60;;;-5.90;99.90;;;;;;4347420;32;20235;-66
2022/12/14 05:37:39;;;;;;;0.55;0.55;;;-6.00;99.90;;;;;;4375920;32;20077;-66
2022/12/14 05:40:05;;;;;;;0.80;0.80;;;-5.90;99.90;;;;;;4406369;32;20093;-66
2022/12/14 05:42:31;;;;;;;1.87;1.73;;;-5.90;99.90;;;;;;4401342;32;20077;-66
2022/12/14 05:44:57;;;;;;;0.50;0.50;;;-5.90;99.90;;;;;;4395675;32;20639;-66
2022/12/14 05:47:23;;;;;;;1.15;1.12;;;-5.90;99.90;;;;;;4398951;32;20065;-66
2022/12/14 05:49:48;;;;;;;0.57;0.57;;;-5.90;99.90;;;;;;4399183;32;20062;-66
2022/12/14 05:52:14;;;;;;;4.75;1.48;;;-5.90;99.90;;;;;;4393172;32;20384;-66
2022/12/14 05:54:39;;;;;;;0.50;0.50;;;-6.00;99.90;;;;;;4360519;32;20626;-65
2022/12/14 05:57:05;;;;;;;0.60;0.60;;;-5.90;99.90;;;;;;4373595;32;20192;-65
2022/12/14 05:59:31;;;;;;;0.60;0.60;;;-6.00;99.90;;;;;;4399200;32;20077;-65
2022/12/14 06:01:57;;;;;;;0.60;0.60;;;-5.90;99.90;;;;;;4402298;32;20477;-64
2022/12/14 06:04:22;;;;;;;0.70;0.70;;;-5.90;99.90;;;;;;4375970;32;20678;-65
2022/12/14 06:06:49;;;;;;;0.50;0.50;;;-5.90;99.90;;;;;;4367378;32;20098;-64
2022/12/14 06:09:16;;;;;;;0.60;0.60;;;-5.90;99.90;;;;;;4368494;32;20143;-64
2022/12/14 06:11:42;;;;;;;0.77;0.77;;;-6.00;99.90;;;;;;4373156;32;20089;-64
2022/12/14 06:14:09;;;;;;;1.27;1.20;;;-6.00;99.90;;;;;;4363020;32;20371;-64
2022/12/14 06:16:35;;;;;;;5.55;3.05;;;-6.00;99.90;;;;;;4368006;32;20069;-64
2022/12/14 06:19:03;;;;;;;0.93;0.93;;;-6.00;99.90;;;;;;4328425;32;20224;-65
2022/12/14 06:21:32;;;;;;;0.70;0.70;;;-6.00;99.90;;;;;;4339880;32;20088;-65
2022/12/14 06:23:58;;;;;;;3.60;2.70;;;-5.90;99.90;;;;;;4302961;32;20349;-64
2022/12/14 06:26:25;;;;;;;5.93;3.05;;;-6.00;99.90;;;;;;4315711;32;20316;-64
2022/12/14 06:28:51;;;;;;;0.95;0.95;;;-6.00;99.90;;;;;;4337515;32;21119;-64
2022/12/14 06:31:19;;;;;;;0.55;0.55;;;-6.00;99.90;;;;;;4303179;32;20513;-64
2022/12/14 06:33:46;;;;;;;0.50;0.50;;;-6.00;99.90;;;;;;4339773;32;20077;-64
2022/12/14 06:36:22;;;;;;;0.65;0.65;;;-6.00;99.90;;;;;;4341369;32;20432;-64
2022/12/14 06:38:49;;;;;;;0.80;0.80;;;-6.00;99.90;;;;;;4351102;32;20089;-64
2022/12/14 06:41:18;;;;;;;0.60;0.60;;;-6.00;99.90;;;;;;4347234;32;20505;-64
2022/12/14 06:43:44;;;;;;;0.60;0.60;;;-5.90;99.90;;;;;;4365825;32;20138;-64
2022/12/14 06:46:12;;;;;;;0.75;0.75;;;-5.90;99.90;;;;;;4376315;32;20412;-65
2022/12/14 06:48:37;;;;;;;0.50;0.50;;;-6.00;99.90;;;;;;4378704;32;21362;-64
2022/12/14 06:51:04;;;;;;;1.23;1.15;;;-6.10;99.90;;;;;;4373272;32;20085;-65
2022/12/14 06:53:30;;;;;;;0.60;0.60;;;-6.10;99.90;;;;;;4377918;32;20268;-65
2022/12/14 06:56:13;;;;;;;0.50;0.50;;;-6.00;99.90;;;;;;4387574;32;20944;-65
2022/12/14 06:58:39;;;;;;;0.95;0.95;;;-6.10;99.90;;;;;;4356132;32;20120;-63
2022/12/14 07:01:07;;;;;;;0.50;0.50;;;-6.10;99.90;;;;;;4362661;32;20935;-65
2022/12/14 07:03:33;;;;;;;0.75;0.75;;;-6.10;99.90;;;;;;4358723;32;20332;-64
2022/12/14 07:06:00;;;;;;;0.70;0.70;;;-6.10;99.90;;;;;;4358937;32;21215;-64
2022/12/14 07:08:27;;;;;;;1.77;1.67;;;-6.20;99.90;;;;;;4371748;32;20105;-65
2022/12/14 07:10:53;;;;;;;0.50;0.50;;;-6.20;99.90;;;;;;4376408;32;20444;-65
2022/12/14 07:13:20;;;;;;;0.50;0.50;;;-6.10;99.90;;;;;;4386130;32;20314;-65
2022/12/14 07:15:51;;;;;;;1.58;1.42;;;-6.10;99.90;;;;;;4384069;32;20525;-64
2022/12/14 07:18:17;;;;;;;0.47;0.47;;;-6.10;99.90;;;;;;4385517;32;20081;-62
2022/12/14 07:20:43;;;;;;;0.50;0.50;;;-6.10;99.90;;;;;;4365283;32;20235;-63
2022/12/14 07:23:09;;;;;;;0.55;0.55;;;-6.10;99.90;;;;;;4369766;32;20114;-64
2022/12/14 07:25:34;;;;;;;0.50;0.50;;;-6.10;99.90;;;;;;4387410;32;20069;-64
2022/12/14 07:28:00;;;;;;;0.98;0.98;;;-6.00;99.90;;;;;;4382940;32;20093;-62
2022/12/14 07:30:26;;;;;;;5.20;3.35;;;-6.00;99.90;;;;;;4366141;32;84933;-64
2022/12/14 07:32:51;;;;;;;1.10;1.10;;;-6.00;99.90;;;;;;4374471;32;20409;-63
2022/12/14 07:35:17;;;;;;;0.50;0.50;;;-6.00;99.90;;;;;;4368497;32;20619;-64
2022/12/14 07:37:43;;;;;;;0.77;0.77;;;-5.90;99.90;;;;;;4365686;32;20117;-65
2022/12/14 07:40:09;;;;;;;0.75;0.75;;;-5.90;99.90;;;;;;4384469;32;20089;-65
2022/12/14 07:42:35;;;;;;;1.75;1.20;;;-5.90;99.90;;;;;;4384057;32;20310;-65
2022/12/14 07:45:00;;;;;;;0.60;0.60;;;-5.80;99.90;;;;;;4385594;32;20114;-64
2022/12/14 07:47:29;;;;;;;0.57;0.57;;;-5.70;99.90;;;;;;4382699;32;21365;-66
2022/12/14 07:49:54;;;;;;;0.70;0.70;;;-5.70;99.90;;;;;;4371377;32;20961;-65
2022/12/14 07:52:20;;;;;;;0.43;0.43;;;-5.70;99.90;;;;;;4370515;32;20571;-65
2022/12/14 07:54:45;;;;;;;0.40;0.40;;;-5.70;99.90;;;;;;4380169;32;20232;-66
2022/12/14 07:57:11;;;;;;;0.50;0.50;;;-5.50;99.90;;;;;;4385879;32;20077;-66
2022/12/14 07:59:36;;;;;;;2.00;1.25;;;-5.50;99.90;;;;;;4376655;32;20092;-66
2022/12/14 08:02:02;;;;;;;0.50;0.50;;;-5.50;99.90;;;;;;4373482;32;20453;-66
2022/12/14 08:04:27;;;;;;;1.40;1.30;;;-5.50;99.90;;;;;;4361891;32;20137;-65
2022/12/14 08:06:53;;;;;;;0.73;0.73;;;-5.50;99.90;;;;;;4345637;32;20482;-65
2022/12/14 08:09:19;;;;;;;1.00;1.00;;;-5.50;99.90;;;;;;4381759;32;20619;-64
2022/12/14 08:11:45;;;;;;;0.90;0.90;;;-5.40;99.90;;;;;;4377133;32;20241;-65
2022/12/14 08:14:16;;;;;;;3.03;1.87;;;-5.40;99.90;;;;;;4383689;32;20144;-65
2022/12/14 08:16:43;;;;;;;1.67;1.58;;;-5.40;99.90;;;;;;4381570;32;20181;-64
2022/12/14 08:19:11;;;;;;;0.70;0.70;;;-5.30;99.90;;;;;;4374816;32;20204;-63
2022/12/14 08:21:36;;;;;;;0.50;0.50;;;-5.30;99.90;;;;;;4377487;32;20538;-64
2022/12/14 08:24:02;;;;;;;0.50;0.50;;;-5.20;99.90;;;;;;4377148;32;20105;-65
2022/12/14 08:26:28;;;;;;;0.70;0.70;;;-5.10;99.90;;;;;;4375003;32;20401;-64
2022/12/14 08:28:54;;;;;;;0.60;0.60;;;-5.10;99.90;;;;;;4378767;32;20410;-66
2022/12/14 08:31:23;;;;;;;0.55;0.55;;;-5.00;99.90;;;;;;4359934;32;20633;-66
2022/12/14 08:33:49;;;;;;;0.70;0.70;;;-4.90;99.90;;;;;;4349818;32;21409;-65
2022/12/14 08:36:18;;;;;;;0.60;0.60;;;-4.80;99.90;;;;;;4351138;32;20332;-65
2022/12/14 08:38:44;;;;;;;0.50;0.50;;;-4.70;99.90;;;;;;4373446;32;20254;-65
2022/12/14 08:41:12;;;;;;;11.12;4.32;;;-4.60;99.90;;;;;;4378868;32;20222;-65
2022/12/14 08:43:39;;;;;;;2.65;2.15;;;-4.50;99.90;;;;;;4389976;32;20740;-63
2022/12/14 08:46:06;;;;;;;5.18;1.95;;;-4.40;99.90;;;;;;4394228;32;20109;-65
2022/12/14 08:48:31;;;;;;;1.58;1.42;;;-4.30;99.90;;;;;;4366688;32;20084;-65
2022/12/14 08:51:02;;;;;;;0.60;0.60;;;-4.20;99.90;;;;;;4358924;32;20207;-65
2022/12/14 08:53:27;;;;;;;0.52;0.52;;;-4.00;99.90;;;;;;4356669;32;20164;-65
2022/12/14 08:55:53;;;;;;;0.60;0.60;;;-4.10;99.90;;;;;;4365028;32;20097;-66
2022/12/14 08:58:18;;;;;;;0.60;0.60;;;-4.00;99.90;;;;;;4376516;32;20352;-63
2022/12/14 09:00:44;;;;;;;0.90;0.85;;;-4.10;99.90;;;;;;4360288;32;20277;-64
2022/12/14 09:03:10;;;;;;;12.68;2.50;;;-4.10;99.90;;;;;;4357865;32;21037;-64
2022/12/14 09:05:36;;;;;;;0.60;0.60;;;-4.00;99.90;;;;;;4357774;32;21835;-65
2022/12/14 09:08:01;;;;;;;0.60;0.60;;;-3.90;99.90;;;;;;4379307;32;20101;-65
2022/12/14 09:10:27;;;;;;;6.05;1.35;;;-3.90;99.90;;;;;;4384832;32;20503;-67
2022/12/14 09:12:53;;;;;;;0.50;0.50;;;-3.90;99.90;;;;;;4385321;32;21251;-67
2022/12/14 09:15:19;;;;;;;6.70;1.95;;;-3.80;99.90;;;;;;4384153;32;20604;-66
2022/12/14 09:17:44;;;;;;;0.40;0.40;;;-3.90;99.90;;;;;;4389734;32;20113;-65
2022/12/14 09:20:12;;;;;;;0.40;0.40;;;-3.90;99.90;;;;;;4369982;32;20851;-66
2022/12/14 09:22:37;;;;;;;0.90;0.90;;;-3.80;99.90;;;;;;4374237;32;20843;-65
2022/12/14 09:25:03;;;;;;;0.40;0.40;;;-3.70;99.90;;;;;;4372073;32;20098;-66
2022/12/14 09:27:29;;;;;;;3.00;1.95;;;-3.60;99.90;;;;;;4384291;32;20088;-65
2022/12/14 09:29:54;;;;;;;0.45;0.45;;;-3.60;99.90;;;;;;4365726;32;20085;-65
2022/12/14 09:32:20;;;;;;;2.08;1.77;;;-3.60;99.90;;;;;;4362683;32;20354;-65
2022/12/14 09:34:45;;;;;;;0.95;0.90;;;-3.60;99.90;;;;;;4347791;32;20204;-65
2022/12/14 09:37:11;;;;;;;9.85;1.98;;;-3.50;99.90;;;;;;4370494;32;20180;-65
2022/12/14 09:39:37;;;;;;;0.75;0.75;;;-3.50;99.90;;;;;;4374854;32;20309;-66
2022/12/14 09:42:36;;;;;;;0.65;0.65;;;-3.30;99.90;;;;;;4364862;32;20442;-65
2022/12/14 09:45:10;;;;;;;0.60;0.60;;;-3.10;99.90;;;;;;4374236;32;20607;-65
2022/12/14 09:47:43;;;;;;;0.70;0.70;;;-3.00;99.90;;;;;;4372577;32;20599;-66
2022/12/14 09:50:15;;;;;;;2.70;1.45;;;-2.90;99.90;;;;;;4371450;32;20101;-66
2022/12/14 09:52:46;;;;;;;2.08;1.80;;;-2.90;99.90;;;;;;4373474;32;20105;-65
2022/12/14 09:55:20;;;;;;;1.50;1.40;;;-2.90;99.90;;;;;;4378257;32;20161;-65
2022/12/14 09:57:49;;;;;;;0.50;0.50;;;-3.10;99.90;;;;;;4388321;32;20646;-66
2022/12/14 10:00:17;;;;;;;1.00;1.00;;;-3.10;99.90;;;;;;4371976;32;20093;-65
2022/12/14 10:03:23;;;;;;;4.00;2.47;;;-3.00;99.90;;;;;;4362812;32;20197;-64
2022/12/14 10:06:10;;;;;;;2.80;1.48;;;-3.00;99.90;;;;;;4340934;32;20743;-65
2022/12/14 10:08:50;;;;;;;0.70;0.70;;;-2.90;99.90;;;;;;4362323;32;20220;-65
2022/12/14 10:11:45;;;;;;;0.68;0.68;;;-2.90;99.90;;;;;;4375844;32;22234;-65
2022/12/14 10:14:24;;;;;;;2.08;1.90;;;-2.80;99.90;;;;;;4373920;32;20761;-66
2022/12/14 10:17:30;;;;;;;7.95;1.55;;;-2.80;99.90;;;;;;4392653;32;20687;-65
2022/12/14 10:20:03;;;;;;;1.23;1.20;;;-2.90;99.90;;;;;;4362928;32;20366;-65
2022/12/14 10:22:36;;;;;;;0.60;0.60;;;-2.90;99.90;;;;;;4348342;32;20097;-66
2022/12/14 10:25:11;;;;;;;0.60;0.60;;;-2.90;99.90;;;;;;4359708;32;20104;-65
2022/12/14 10:27:39;;;;;;;1.55;1.45;;;-2.80;99.90;;;;;;4376725;32;20730;-64
2022/12/14 10:30:15;;;;;;;0.68;0.68;;;-2.80;99.90;;;;;;4362102;32;20228;-65
2022/12/14 10:32:47;;;;;;;0.40;0.40;;;-2.70;99.90;;;;;;4351803;32;20362;-65
2022/12/14 10:35:15;;;;;;;1.75;1.50;;;-2.60;99.90;;;;;;4369665;32;20097;-65
2022/12/14 10:37:46;;;;;;;0.60;0.60;;;-2.50;99.90;;;;;;4384418;32;21593;-65
2022/12/14 10:40:26;;;;;;;1.35;1.15;;;-2.50;99.90;;;;;;4377802;32;20169;-64
2022/12/14 10:43:12;;;;;;;0.75;0.75;;;-2.50;99.90;;;;;;4372834;32;20458;-65
2022/12/14 10:45:45;;;;;;;0.70;0.70;;;-2.40;99.90;;;;;;4372908;32;20674;-64
2022/12/14 10:48:36;;;;;;;0.40;0.40;;;-2.50;99.90;;;;;;4384651;32;20253;-64
2022/12/14 10:51:06;;;;;;;;;;;-2.60;99.90;;;;;;4367968;32;20856;-66
2022/12/14 10:53:46;;;;;;;2.62;1.37;;;-2.50;99.90;;;;;;4373239;32;19987;-66
2022/12/14 10:56:15;;;;;;;;;;;-2.50;99.90;;;;;;4384483;32;20240;-66
2022/12/14 10:58:41;;;;;;;0.50;0.50;;;-2.40;99.90;;;;;;4385073;32;19984;-65
2022/12/14 11:01:13;;;;;;;2.20;2.03;;;-2.40;99.90;;;;;;4373724;32;20093;-66
2022/12/14 11:03:40;;;;;;;0.40;0.40;;;-2.30;99.90;;;;;;4364930;32;20390;-66
2022/12/14 11:06:14;;;;;;;1.25;1.10;;;-2.20;99.90;;;;;;4373907;32;20157;-66
2022/12/14 11:08:46;;;;;;;0.50;0.50;;;-2.30;99.90;;;;;;4385911;32;20114;-66
2022/12/14 11:11:15;;;;;;;0.50;0.50;;;-2.30;99.90;;;;;;4384748;32;20482;-66
2022/12/14 11:14:08;;;;;;;0.95;0.95;;;-2.20;99.90;;;;;;4384949;32;20120;-66
2022/12/14 11:16:36;;;;;;;0.95;0.95;;;-2.20;99.90;;;;;;4355300;32;20518;-66
2022/12/14 11:19:04;;;;;;;1.58;1.37;;;-2.10;99.90;;;;;;4368511;32;20365;-66
2022/12/14 11:21:34;;;;;;;0.90;0.90;;;-2.00;99.90;;;;;;4368491;32;20110;-64
2022/12/14 11:24:00;;;;;;;2.37;1.25;;;-1.90;99.90;;;;;;4373741;32;20771;-67
2022/12/14 11:26:36;;;;;;;0.90;0.90;;;-1.80;99.90;;;;;;4383529;32;20085;-67
2022/12/14 11:29:04;;;;;;;0.52;0.52;;;-1.70;99.90;;;;;;4378926;32;20161;-69
2022/12/14 11:31:36;;;;;;;0.32;0.32;;;-1.60;99.90;;;;;;4367743;32;20089;-67
2022/12/14 11:34:05;;;;;;;3.35;1.85;;;-1.40;99.90;;;;;;4368434;32;20097;-67
2022/12/14 11:36:35;;;;;;;0.70;0.70;;;-1.20;99.90;;;;;;4374410;32;20102;-67
2022/12/14 11:39:23;;;;;;;1.10;1.08;;;-1.20;99.90;;;;;;4390547;32;20497;-67
2022/12/14 11:42:00;;;;;;;0.50;0.50;;;-1.10;99.90;;;;;;4375472;32;20818;-66
2022/12/14 11:44:32;;;;;;;0.60;0.60;;;-1.10;99.90;;;;;;4393290;32;20435;-67
2022/12/14 11:46:59;;;;;;;1.87;1.67;;;-1.20;99.90;;;;;;4382782;32;20097;-66
2022/12/14 11:49:32;;;;;;;4.80;2.17;;;-1.20;99.90;;;;;;4376721;32;20267;-67
2022/12/14 11:52:02;;;;;;;0.50;0.50;;;-1.20;99.90;;;;;;4369731;32;20188;-67
2022/12/14 11:54:30;;;;;;;0.57;0.57;;;-1.10;99.90;;;;;;4362434;32;20570;-67
2022/12/14 11:57:09;;;;;;;1.33;1.23;;;-1.10;99.90;;;;;;4363993;32;20105;-67
2022/12/14 11:59:58;;;;;;;0.60;0.60;;;-1.10;99.90;;;;;;4353809;32;20353;-65
2022/12/14 12:02:32;;;;;;;0.60;0.60;;;-1.10;99.90;;;;;;4357387;32;20118;-66
2022/12/14 12:05:04;;;;;;;10.40;1.83;;;-1.00;99.90;;;;;;4368913;32;20106;-66
2022/12/14 12:07:35;;;;;;;0.57;0.57;;;-1.00;99.90;;;;;;4376658;32;20117;-67
2022/12/14 12:10:05;;;;;;;0.60;0.60;;;-0.90;99.90;;;;;;4372257;32;20169;-67
2022/12/14 12:12:31;;;;;;;0.70;0.70;;;-0.70;99.90;;;;;;4383819;32;20433;-67
2022/12/14 12:14:57;;;;;;;1.60;1.50;;;-0.90;99.90;;;;;;4388790;32;20078;-67
2022/12/14 12:17:42;;;;;;;0.55;0.55;;;-0.90;99.90;;;;;;4387591;32;20125;-67
2022/12/14 12:20:19;;;;;;;22.95;1.55;;;-1.00;99.90;;;;;;4375925;32;20154;-66
2022/12/14 12:22:48;;;;;;;0.40;0.40;;;-1.00;99.90;;;;;;4367028;32;20156;-66
2022/12/14 12:25:16;;;;;;;0.40;0.40;;;-1.00;99.90;;;;;;4368151;32;20586;-67
2022/12/14 12:27:42;;;;;;;3.87;1.55;;;-1.00;99.90;;;;;;4386076;32;20194;-67
2022/12/14 12:30:21;;;;;;;0.85;0.85;;;-0.90;99.90;;;;;;4362120;32;20435;-65
2022/12/14 12:32:50;;;;;;;0.80;0.80;;;-0.90;99.90;;;;;;4367905;32;20812;-65
2022/12/14 12:35:41;;;;;;;0.85;0.80;;;-0.80;99.90;;;;;;4363772;32;21063;-65
2022/12/14 12:38:17;;;;;;;0.82;0.82;;;-0.80;99.90;;;;;;4369752;32;20331;-65
2022/12/14 12:40:58;;;;;;;1.35;1.25;;;-0.70;99.90;;;;;;4367958;32;20108;-64
2022/12/14 12:43:30;;;;;;;0.50;0.50;;;-0.90;99.90;;;;;;4363110;32;20310;-69
2022/12/14 12:46:04;;;;;;;2.17;1.25;;;-1.00;99.90;;;;;;4371295;32;20217;-66
2022/12/14 12:48:47;;;;;;;0.40;0.40;;;-1.10;99.90;;;;;;4375304;32;20435;-67
2022/12/14 12:51:21;;;;;;;0.50;0.50;;;-1.20;99.90;;;;;;4367179;32;20117;-66
2022/12/14 12:53:54;;;;;;;0.50;0.50;;;-1.20;99.90;;;;;;4373694;32;20198;-66
2022/12/14 12:56:32;;;;;;;0.40;0.40;;;-1.20;99.90;;;;;;4381676;32;20792;-69
2022/12/14 12:58:59;;;;;;;0.60;0.60;;;-1.30;99.90;;;;;;4382288;32;20278;-67
2022/12/14 13:01:32;;;;;;;0.57;0.57;;;-1.40;99.90;;;;;;4372133;32;20116;-67
2022/12/14 13:04:03;;;;;;;0.70;0.70;;;-1.50;99.90;;;;;;4365253;32;20382;-67
2022/12/14 13:06:33;;;;;;;1.00;1.00;;;-1.50;99.90;;;;;;4370585;32;20097;-66
2022/12/14 13:09:01;;;;;;;;;;;-1.60;99.90;;;;;;4379851;32;20783;-67
2022/12/14 13:11:34;;;;;;;0.57;0.57;;;-1.70;99.90;;;;;;4378092;32;20155;-67
2022/12/14 13:14:27;;;;;;;1.52;1.05;;;-1.70;99.90;;;;;;4377734;32;20098;-68
2022/12/14 13:16:54;;;;;;;0.73;0.73;;;-1.80;99.90;;;;;;4385807;32;20073;-68